sensor_id;sensor_type;location;lat;lon;timestamp;temperature;humidity
23540;DHT22;11947;50.810;4.394;2023-12-07T00:00:49;4.20;99.90
23540;DHT22;11947;50.810;4.394;2023-12-07T00:03:15;4.30;99.90
23540;DHT22;11947;50.810;4.394;2023-12-07T00:05:41;4.10;99.90
23540;DHT22;11947;50.810;4.394;2023-12-07T00:08:09;4.10;99.90
23540;DHT22;11947;50.810;4.394;2023-12-07T00:10:36;4.30;99.90
23540;DHT22;11947;50.810;4.394;2023-12-07T00:13:02;4.20;99.90
23540;DHT22;11947;50.810;4.394;2023-12-07T00:15:27;4.30;99.90
23540;DHT22;11947;50.810;4.394;2023-12-07T00:17:53;4.10;99.90
23540;DHT22;11947;50.810;4.394;2023-12-07T00:20:19;4.10;99.90
23540;DHT22;11947;50.810;4.394;2023-12-07T00:22:44;4.10;99.90
23540;DHT22;11947;50.810;4.394;2023-12-07T00:25:10;4.00;99.90
23540;DHT22;11947;50.810;4.394;2023-12-07T00:27:35;4.20;99.90
23540;DHT22;11947;50.810;4.394;2023-12-07T00:30:02;4.20;99.90
23540;DHT22;11947;50.810;4.394;2023-12-07T00:32:28;4.10;99.90
23540;DHT22;11947;50.810;4.394;2023-12-07T00:34:54;4.00;99.90
23540;DHT22;11947;50.810;4.394;2023-12-07T00:37:20;3.80;99.90
23540;DHT22;11947;50.810;4.394;2023-12-07T00:39:46;4.20;99.90
23540;DHT22;11947;50.810;4.394;2023-12-07T00:42:11;4.00;99.90
23540;DHT22;11947;50.810;4.394;2023-12-07T00:44:40;4.10;99.90
23540;DHT22;11947;50.810;4.394;2023-12-07T00:47:06;4.00;99.90
23540;DHT22;11947;50.810;4.394;2023-12-07T00:49:32;4.10;99.90
23540;DHT22;11947;50.810;4.394;2023-12-07T00:51:58;4.20;99.90
23540;DHT22;11947;50.810;4.394;2023-12-07T00:54:24;4.20;99.90
23540;DHT22;11947;50.810;4.394;2023-12-07T00:56:49;4.20;99.90
23540;DHT22;11947;50.810;4.394;2023-12-07T00:59:15;4.20;99.90
23540;DHT22;11947;50.810;4.394;2023-12-07T01:01:41;4.00;99.90
23540;DHT22;11947;50.810;4.394;2023-12-07T01:04:06;4.20;99.90
23540;DHT22;11947;50.810;4.394;2023-12-07T01:06:32;4.10;99.90
23540;DHT22;11947;50.810;4.394;2023-12-07T01:08:57;4.30;99.90
23540;DHT22;11947;50.810;4.394;2023-12-07T01:11:23;4.20;99.90
23540;DHT22;11947;50.810;4.394;2023-12-07T01:13:49;4.20;99.90
23540;DHT22;11947;50.810;4.394;2023-12-07T01:16:14;4.20;99.90
23540;DHT22;11947;50.810;4.394;2023-12-07T01:18:40;4.00;99.90
23540;DHT22;11947;50.810;4.394;2023-12-07T01:21:06;3.90;99.90
23540;DHT22;11947;50.810;4.394;2023-12-07T01:23:31;4.00;99.90
23540;DHT22;11947;50.810;4.394;2023-12-07T01:25:57;4.10;99.90
23540;DHT22;11947;50.810;4.394;2023-12-07T01:28:23;4.10;99.90
23540;DHT22;11947;50.810;4.394;2023-12-07T01:30:48;3.90;99.90
23540;DHT22;11947;50.810;4.394;2023-12-07T01:33:14;3.60;99.90
23540;DHT22;11947;50.810;4.394;2023-12-07T01:35:40;3.50;99.90
23540;DHT22;11947;50.810;4.394;2023-12-07T01:38:06;3.40;99.90
23540;DHT22;11947;50.810;4.394;2023-12-07T01:40:32;3.50;99.90
23540;DHT22;11947;50.810;4.394;2023-12-07T01:42:57;3.80;99.90
23540;DHT22;11947;50.810;4.394;2023-12-07T01:45:23;3.60;99.90
23540;DHT22;11947;50.810;4.394;2023-12-07T01:47:50;3.70;99.90
23540;DHT22;11947;50.810;4.394;2023-12-07T01:50:17;3.50;99.90
23540;DHT22;11947;50.810;4.394;2023-12-07T01:52:51;3.30;99.90
23540;DHT22;11947;50.810;4.394;2023-12-07T01:55:18;3.20;99.90
23540;DHT22;11947;50.810;4.394;2023-12-07T01:57:44;3.20;99.90
23540;DHT22;11947;50.810;4.394;2023-12-07T02:00:14;3.20;99.90
23540;DHT22;11947;50.810;4.394;2023-12-07T02:02:40;3.40;99.90
23540;DHT22;11947;50.810;4.394;2023-12-07T02:05:06;3.60;99.90
23540;DHT22;11947;50.810;4.394;2023-12-07T02:07:34;3.70;99.90
23540;DHT22;11947;50.810;4.394;2023-12-07T02:09:59;3.90;99.90
23540;DHT22;11947;50.810;4.394;2023-12-07T02:12:25;4.10;99.90
23540;DHT22;11947;50.810;4.394;2023-12-07T02:14:52;3.90;99.90
23540;DHT22;11947;50.810;4.394;2023-12-07T02:20:24;3.90;99.90
23540;DHT22;11947;50.810;4.394;2023-12-07T02:22:56;3.80;99.90
23540;DHT22;11947;50.810;4.394;2023-12-07T02:25:36;3.60;99.90
23540;DHT22;11947;50.810;4.394;2023-12-07T02:28:04;3.70;99.90
23540;DHT22;11947;50.810;4.394;2023-12-07T02:30:29;3.80;99.90
23540;DHT22;11947;50.810;4.394;2023-12-07T02:32:55;3.90;99.90
23540;DHT22;11947;50.810;4.394;2023-12-07T02:35:21;3.90;99.90
23540;DHT22;11947;50.810;4.394;2023-12-07T02:37:50;3.80;99.90
23540;DHT22;11947;50.810;4.394;2023-12-07T02:40:19;4.00;99.90
23540;DHT22;11947;50.810;4.394;2023-12-07T02:42:46;3.90;99.90
23540;DHT22;11947;50.810;4.394;2023-12-07T02:45:12;3.80;99.90
23540;DHT22;11947;50.810;4.394;2023-12-07T02:47:39;4.00;99.90
23540;DHT22;11947;50.810;4.394;2023-12-07T02:50:06;3.90;99.90
23540;DHT22;11947;50.810;4.394;2023-12-07T02:52:32;3.80;99.90
23540;DHT22;11947;50.810;4.394;2023-12-07T02:54:58;4.00;99.90
23540;DHT22;11947;50.810;4.394;2023-12-07T02:57:23;4.10;99.90
23540;DHT22;11947;50.810;4.394;2023-12-07T02:59:49;4.00;99.90
23540;DHT22;11947;50.810;4.394;2023-12-07T03:02:15;4.10;99.90
23540;DHT22;11947;50.810;4.394;2023-12-07T03:04:40;4.30;99.90
23540;DHT22;11947;50.810;4.394;2023-12-07T03:07:06;4.30;99.90
23540;DHT22;11947;50.810;4.394;2023-12-07T03:09:32;4.30;99.90
23540;DHT22;11947;50.810;4.394;2023-12-07T03:11:58;4.30;99.90
23540;DHT22;11947;50.810;4.394;2023-12-07T03:14:23;4.10;99.90
23540;DHT22;11947;50.810;4.394;2023-12-07T03:16:49;4.40;99.90
23540;DHT22;11947;50.810;4.394;2023-12-07T03:19:14;4.40;99.90
23540;DHT22;11947;50.810;4.394;2023-12-07T03:21:41;4.20;99.90
23540;DHT22;11947;50.810;4.394;2023-12-07T03:24:08;4.10;99.90
23540;DHT22;11947;50.810;4.394;2023-12-07T03:26:34;4.10;99.90
23540;DHT22;11947;50.810;4.394;2023-12-07T03:29:00;4.20;99.90
23540;DHT22;11947;50.810;4.394;2023-12-07T03:31:26;4.20;99.90
23540;DHT22;11947;50.810;4.394;2023-12-07T03:33:52;4.10;99.90
23540;DHT22;11947;50.810;4.394;2023-12-07T03:36:18;4.10;99.90
23540;DHT22;11947;50.810;4.394;2023-12-07T03:38:43;4.10;99.90
23540;DHT22;11947;50.810;4.394;2023-12-07T03:41:09;4.10;99.90
23540;DHT22;11947;50.810;4.394;2023-12-07T03:43:34;4.00;99.90
23540;DHT22;11947;50.810;4.394;2023-12-07T03:46:04;4.00;99.90
23540;DHT22;11947;50.810;4.394;2023-12-07T03:48:30;4.00;99.90
23540;DHT22;11947;50.810;4.394;2023-12-07T03:50:56;4.00;99.90
23540;DHT22;11947;50.810;4.394;2023-12-07T03:53:21;4.20;99.90
23540;DHT22;11947;50.810;4.394;2023-12-07T03:55:47;4.10;99.90
23540;DHT22;11947;50.810;4.394;2023-12-07T03:58:13;4.10;99.90
23540;DHT22;11947;50.810;4.394;2023-12-07T04:00:39;4.20;99.90
23540;DHT22;11947;50.810;4.394;2023-12-07T04:03:05;4.00;99.90
23540;DHT22;11947;50.810;4.394;2023-12-07T04:05:31;4.00;99.90
23540;DHT22;11947;50.810;4.394;2023-12-07T04:07:57;4.20;99.90
23540;DHT22;11947;50.810;4.394;2023-12-07T04:10:23;4.10;99.90
23540;DHT22;11947;50.810;4.394;2023-12-07T04:12:49;4.10;99.90
23540;DHT22;11947;50.810;4.394;2023-12-07T04:15:15;4.10;99.90
23540;DHT22;11947;50.810;4.394;2023-12-07T04:17:40;3.90;99.90
23540;DHT22;11947;50.810;4.394;2023-12-07T04:20:07;3.80;99.90
23540;DHT22;11947;50.810;4.394;2023-12-07T04:22:33;3.70;99.90
23540;DHT22;11947;50.810;4.394;2023-12-07T04:24:58;3.70;99.90
23540;DHT22;11947;50.810;4.394;2023-12-07T04:27:24;3.60;99.90
23540;DHT22;11947;50.810;4.394;2023-12-07T04:29:50;3.60;99.90
23540;DHT22;11947;50.810;4.394;2023-12-07T04:32:15;3.60;99.90
23540;DHT22;11947;50.810;4.394;2023-12-07T04:34:41;3.40;99.90
23540;DHT22;11947;50.810;4.394;2023-12-07T04:37:06;3.50;99.90
23540;DHT22;11947;50.810;4.394;2023-12-07T04:39:32;3.30;99.90
23540;DHT22;11947;50.810;4.394;2023-12-07T04:41:58;3.30;99.90
23540;DHT22;11947;50.810;4.394;2023-12-07T04:44:23;3.40;99.90
23540;DHT22;11947;50.810;4.394;2023-12-07T04:46:51;3.30;99.90
23540;DHT22;11947;50.810;4.394;2023-12-07T04:49:17;3.20;99.90
23540;DHT22;11947;50.810;4.394;2023-12-07T04:51:42;3.10;99.90
23540;DHT22;11947;50.810;4.394;2023-12-07T04:54:15;3.00;99.90
23540;DHT22;11947;50.810;4.394;2023-12-07T04:56:41;3.10;99.90
23540;DHT22;11947;50.810;4.394;2023-12-07T04:59:07;3.10;99.90
23540;DHT22;11947;50.810;4.394;2023-12-07T05:01:37;3.20;99.90
23540;DHT22;11947;50.810;4.394;2023-12-07T05:04:04;3.40;99.90
23540;DHT22;11947;50.810;4.394;2023-12-07T05:06:31;3.40;99.90
23540;DHT22;11947;50.810;4.394;2023-12-07T05:08:57;3.40;99.90
23540;DHT22;11947;50.810;4.394;2023-12-07T05:11:23;3.50;99.90
23540;DHT22;11947;50.810;4.394;2023-12-07T05:13:49;3.50;99.90
23540;DHT22;11947;50.810;4.394;2023-12-07T05:16:15;3.60;99.90
23540;DHT22;11947;50.810;4.394;2023-12-07T05:18:40;3.40;99.90
23540;DHT22;11947;50.810;4.394;2023-12-07T05:21:06;3.30;99.90
23540;DHT22;11947;50.810;4.394;2023-12-07T05:23:33;3.30;99.90
23540;DHT22;11947;50.810;4.394;2023-12-07T05:25:59;3.30;99.90
23540;DHT22;11947;50.810;4.394;2023-12-07T05:28:25;3.50;99.90
23540;DHT22;11947;50.810;4.394;2023-12-07T05:30:51;3.30;99.90
23540;DHT22;11947;50.810;4.394;2023-12-07T05:33:18;3.40;99.90
23540;DHT22;11947;50.810;4.394;2023-12-07T05:35:45;3.50;99.90
23540;DHT22;11947;50.810;4.394;2023-12-07T05:38:10;3.40;99.90
23540;DHT22;11947;50.810;4.394;2023-12-07T05:40:36;3.20;99.90
23540;DHT22;11947;50.810;4.394;2023-12-07T05:43:02;3.40;99.90
23540;DHT22;11947;50.810;4.394;2023-12-07T05:45:27;3.20;99.90
23540;DHT22;11947;50.810;4.394;2023-12-07T05:47:53;3.10;99.90
23540;DHT22;11947;50.810;4.394;2023-12-07T05:50:19;3.20;99.90
23540;DHT22;11947;50.810;4.394;2023-12-07T05:52:46;3.20;99.90
23540;DHT22;11947;50.810;4.394;2023-12-07T05:55:11;3.20;99.90
23540;DHT22;11947;50.810;4.394;2023-12-07T05:57:37;3.20;99.90
23540;DHT22;11947;50.810;4.394;2023-12-07T06:00:04;3.10;99.90
23540;DHT22;11947;50.810;4.394;2023-12-07T06:02:33;3.00;99.90
23540;DHT22;11947;50.810;4.394;2023-12-07T06:04:58;3.10;99.90
23540;DHT22;11947;50.810;4.394;2023-12-07T06:07:24;3.10;99.90
23540;DHT22;11947;50.810;4.394;2023-12-07T06:09:49;2.90;99.90
23540;DHT22;11947;50.810;4.394;2023-12-07T06:12:15;3.00;99.90
23540;DHT22;11947;50.810;4.394;2023-12-07T06:14:41;3.00;99.90
23540;DHT22;11947;50.810;4.394;2023-12-07T06:17:06;3.20;99.90
23540;DHT22;11947;50.810;4.394;2023-12-07T06:19:33;3.00;99.90
23540;DHT22;11947;50.810;4.394;2023-12-07T06:21:59;3.00;99.90
23540;DHT22;11947;50.810;4.394;2023-12-07T06:24:24;3.00;99.90
23540;DHT22;11947;50.810;4.394;2023-12-07T06:26:51;3.10;99.90
23540;DHT22;11947;50.810;4.394;2023-12-07T06:29:17;3.00;99.90
23540;DHT22;11947;50.810;4.394;2023-12-07T06:31:44;3.00;99.90
23540;DHT22;11947;50.810;4.394;2023-12-07T06:34:10;2.90;99.90
23540;DHT22;11947;50.810;4.394;2023-12-07T06:36:36;3.00;99.90
23540;DHT22;11947;50.810;4.394;2023-12-07T06:39:02;3.10;99.90
23540;DHT22;11947;50.810;4.394;2023-12-07T06:41:28;2.90;99.90
23540;DHT22;11947;50.810;4.394;2023-12-07T06:43:54;3.10;99.90
23540;DHT22;11947;50.810;4.394;2023-12-07T06:46:20;3.00;99.90
23540;DHT22;11947;50.810;4.394;2023-12-07T06:48:45;3.00;99.90
23540;DHT22;11947;50.810;4.394;2023-12-07T06:51:11;3.00;99.90
23540;DHT22;11947;50.810;4.394;2023-12-07T06:53:40;3.20;99.90
23540;DHT22;11947;50.810;4.394;2023-12-07T06:56:06;3.30;99.90
23540;DHT22;11947;50.810;4.394;2023-12-07T06:58:32;3.20;99.90
23540;DHT22;11947;50.810;4.394;2023-12-07T07:00:58;3.30;99.90
23540;DHT22;11947;50.810;4.394;2023-12-07T07:03:23;3.30;99.90
23540;DHT22;11947;50.810;4.394;2023-12-07T07:05:50;3.30;99.90
23540;DHT22;11947;50.810;4.394;2023-12-07T07:08:15;3.20;99.90
23540;DHT22;11947;50.810;4.394;2023-12-07T07:10:41;3.10;99.90
23540;DHT22;11947;50.810;4.394;2023-12-07T07:13:07;3.10;99.90
23540;DHT22;11947;50.810;4.394;2023-12-07T07:15:33;3.20;99.90
23540;DHT22;11947;50.810;4.394;2023-12-07T07:17:59;3.00;99.90
23540;DHT22;11947;50.810;4.394;2023-12-07T07:20:26;3.00;99.90
23540;DHT22;11947;50.810;4.394;2023-12-07T07:22:52;3.10;99.90
23540;DHT22;11947;50.810;4.394;2023-12-07T07:25:17;3.00;99.90
23540;DHT22;11947;50.810;4.394;2023-12-07T07:27:46;3.00;99.90
23540;DHT22;11947;50.810;4.394;2023-12-07T07:30:12;3.00;99.90
23540;DHT22;11947;50.810;4.394;2023-12-07T07:32:38;2.80;99.90
23540;DHT22;11947;50.810;4.394;2023-12-07T07:35:03;3.00;99.90
23540;DHT22;11947;50.810;4.394;2023-12-07T07:37:29;2.90;99.90
23540;DHT22;11947;50.810;4.394;2023-12-07T07:39:55;3.00;99.90
23540;DHT22;11947;50.810;4.394;2023-12-07T07:42:20;2.90;99.90
23540;DHT22;11947;50.810;4.394;2023-12-07T07:44:46;3.10;99.90
23540;DHT22;11947;50.810;4.394;2023-12-07T07:47:11;3.00;99.90
23540;DHT22;11947;50.810;4.394;2023-12-07T07:49:37;3.10;99.90
23540;DHT22;11947;50.810;4.394;2023-12-07T07:52:03;3.20;99.90
23540;DHT22;11947;50.810;4.394;2023-12-07T07:54:30;3.00;99.90
23540;DHT22;11947;50.810;4.394;2023-12-07T07:56:56;3.00;99.90
23540;DHT22;11947;50.810;4.394;2023-12-07T07:59:22;3.00;99.90
23540;DHT22;11947;50.810;4.394;2023-12-07T08:01:48;3.20;99.90
23540;DHT22;11947;50.810;4.394;2023-12-07T08:04:13;3.00;99.90
23540;DHT22;11947;50.810;4.394;2023-12-07T08:06:39;2.90;99.90
23540;DHT22;11947;50.810;4.394;2023-12-07T08:09:05;3.10;99.90
23540;DHT22;11947;50.810;4.394;2023-12-07T08:11:30;3.10;99.90
23540;DHT22;11947;50.810;4.394;2023-12-07T08:13:58;3.00;99.90
23540;DHT22;11947;50.810;4.394;2023-12-07T08:16:23;3.20;99.90
23540;DHT22;11947;50.810;4.394;2023-12-07T08:18:49;3.30;99.90
23540;DHT22;11947;50.810;4.394;2023-12-07T08:21:22;3.30;99.90
23540;DHT22;11947;50.810;4.394;2023-12-07T08:23:48;3.20;99.90
23540;DHT22;11947;50.810;4.394;2023-12-07T08:26:14;3.10;99.90
23540;DHT22;11947;50.810;4.394;2023-12-07T08:28:41;3.20;99.90
23540;DHT22;11947;50.810;4.394;2023-12-07T08:31:07;3.20;99.90
23540;DHT22;11947;50.810;4.394;2023-12-07T08:33:33;3.30;99.90
23540;DHT22;11947;50.810;4.394;2023-12-07T08:36:00;3.40;99.90
23540;DHT22;11947;50.810;4.394;2023-12-07T08:38:26;3.60;99.90
23540;DHT22;11947;50.810;4.394;2023-12-07T08:40:52;3.60;99.90
23540;DHT22;11947;50.810;4.394;2023-12-07T08:43:21;3.70;99.90
23540;DHT22;11947;50.810;4.394;2023-12-07T08:45:49;3.90;99.90
23540;DHT22;11947;50.810;4.394;2023-12-07T08:48:15;3.70;99.90
23540;DHT22;11947;50.810;4.394;2023-12-07T08:50:40;3.90;99.90
23540;DHT22;11947;50.810;4.394;2023-12-07T08:53:06;3.80;99.90
23540;DHT22;11947;50.810;4.394;2023-12-07T08:55:32;4.10;99.90
23540;DHT22;11947;50.810;4.394;2023-12-07T08:57:58;3.70;99.90
23540;DHT22;11947;50.810;4.394;2023-12-07T09:00:25;3.60;99.90
23540;DHT22;11947;50.810;4.394;2023-12-07T09:02:51;3.80;99.90
23540;DHT22;11947;50.810;4.394;2023-12-07T09:05:17;3.90;99.90
23540;DHT22;11947;50.810;4.394;2023-12-07T09:07:43;3.90;99.90
23540;DHT22;11947;50.810;4.394;2023-12-07T09:10:09;4.10;99.90
23540;DHT22;11947;50.810;4.394;2023-12-07T09:12:35;4.10;99.90
23540;DHT22;11947;50.810;4.394;2023-12-07T09:15:02;4.20;99.90
23540;DHT22;11947;50.810;4.394;2023-12-07T09:17:28;4.00;99.90
23540;DHT22;11947;50.810;4.394;2023-12-07T09:19:54;4.10;99.90
23540;DHT22;11947;50.810;4.394;2023-12-07T09:22:20;4.10;99.90
23540;DHT22;11947;50.810;4.394;2023-12-07T09:24:46;4.00;99.90
23540;DHT22;11947;50.810;4.394;2023-12-07T09:27:13;4.20;99.90
23540;DHT22;11947;50.810;4.394;2023-12-07T09:29:39;4.30;99.90
23540;DHT22;11947;50.810;4.394;2023-12-07T09:32:06;4.20;99.90
23540;DHT22;11947;50.810;4.394;2023-12-07T09:34:32;4.30;99.90
23540;DHT22;11947;50.810;4.394;2023-12-07T09:37:10;4.20;99.90
23540;DHT22;11947;50.810;4.394;2023-12-07T09:39:36;4.20;99.90
23540;DHT22;11947;50.810;4.394;2023-12-07T09:42:02;4.40;99.90
23540;DHT22;11947;50.810;4.394;2023-12-07T09:44:28;4.30;99.90
23540;DHT22;11947;50.810;4.394;2023-12-07T09:46:54;4.40;99.90
23540;DHT22;11947;50.810;4.394;2023-12-07T09:49:20;4.40;99.90
23540;DHT22;11947;50.810;4.394;2023-12-07T09:51:46;4.60;99.90
23540;DHT22;11947;50.810;4.394;2023-12-07T09:54:12;4.50;99.90
23540;DHT22;11947;50.810;4.394;2023-12-07T09:56:39;4.30;99.90
23540;DHT22;11947;50.810;4.394;2023-12-07T09:59:05;4.40;99.90
23540;DHT22;11947;50.810;4.394;2023-12-07T10:01:32;4.40;99.90
23540;DHT22;11947;50.810;4.394;2023-12-07T10:04:22;4.60;99.90
23540;DHT22;11947;50.810;4.394;2023-12-07T10:06:49;4.70;99.90
23540;DHT22;11947;50.810;4.394;2023-12-07T10:09:16;4.80;99.90
23540;DHT22;11947;50.810;4.394;2023-12-07T10:11:42;4.80;99.90
23540;DHT22;11947;50.810;4.394;2023-12-07T10:14:10;4.80;99.90
23540;DHT22;11947;50.810;4.394;2023-12-07T10:16:36;4.70;99.90
23540;DHT22;11947;50.810;4.394;2023-12-07T10:19:16;4.70;99.90
23540;DHT22;11947;50.810;4.394;2023-12-07T10:21:48;4.60;99.90
23540;DHT22;11947;50.810;4.394;2023-12-07T10:24:16;4.70;99.90
23540;DHT22;11947;50.810;4.394;2023-12-07T10:26:43;4.80;99.90
23540;DHT22;11947;50.810;4.394;2023-12-07T10:29:10;5.00;99.90
23540;DHT22;11947;50.810;4.394;2023-12-07T10:31:37;4.80;99.90
23540;DHT22;11947;50.810;4.394;2023-12-07T10:34:03;4.90;99.90
23540;DHT22;11947;50.810;4.394;2023-12-07T10:36:30;4.90;99.90
23540;DHT22;11947;50.810;4.394;2023-12-07T10:38:56;5.10;99.90
23540;DHT22;11947;50.810;4.394;2023-12-07T10:41:23;5.10;99.90
23540;DHT22;11947;50.810;4.394;2023-12-07T10:43:53;5.10;99.90
23540;DHT22;11947;50.810;4.394;2023-12-07T10:46:20;5.00;99.90
23540;DHT22;11947;50.810;4.394;2023-12-07T10:48:48;5.10;99.90
23540;DHT22;11947;50.810;4.394;2023-12-07T10:51:23;5.30;99.90
23540;DHT22;11947;50.810;4.394;2023-12-07T10:53:52;5.00;99.90
23540;DHT22;11947;50.810;4.394;2023-12-07T10:56:32;4.90;99.90
23540;DHT22;11947;50.810;4.394;2023-12-07T10:58:58;4.90;99.90
23540;DHT22;11947;50.810;4.394;2023-12-07T11:01:25;5.00;99.90
23540;DHT22;11947;50.810;4.394;2023-12-07T11:03:52;5.20;99.90
23540;DHT22;11947;50.810;4.394;2023-12-07T11:06:21;5.40;99.90
23540;DHT22;11947;50.810;4.394;2023-12-07T11:08:56;5.40;99.90
23540;DHT22;11947;50.810;4.394;2023-12-07T11:11:31;5.50;99.90
23540;DHT22;11947;50.810;4.394;2023-12-07T11:14:07;5.60;99.90
23540;DHT22;11947;50.810;4.394;2023-12-07T11:16:41;5.90;99.90
23540;DHT22;11947;50.810;4.394;2023-12-07T11:22:06;6.00;99.90
23540;DHT22;11947;50.810;4.394;2023-12-07T11:24:32;5.90;99.90
23540;DHT22;11947;50.810;4.394;2023-12-07T11:26:58;6.20;99.90
23540;DHT22;11947;50.810;4.394;2023-12-07T11:29:24;6.20;99.90
23540;DHT22;11947;50.810;4.394;2023-12-07T11:32:00;6.10;99.90
23540;DHT22;11947;50.810;4.394;2023-12-07T11:34:36;6.10;99.90
23540;DHT22;11947;50.810;4.394;2023-12-07T11:37:03;6.10;99.90
23540;DHT22;11947;50.810;4.394;2023-12-07T11:39:29;6.10;99.90
23540;DHT22;11947;50.810;4.394;2023-12-07T11:42:06;6.10;99.90
23540;DHT22;11947;50.810;4.394;2023-12-07T11:44:34;6.00;99.90
23540;DHT22;11947;50.810;4.394;2023-12-07T11:47:00;5.80;99.90
23540;DHT22;11947;50.810;4.394;2023-12-07T11:49:27;6.00;99.90
23540;DHT22;11947;50.810;4.394;2023-12-07T11:51:53;6.10;99.90
23540;DHT22;11947;50.810;4.394;2023-12-07T11:54:19;6.30;99.90
23540;DHT22;11947;50.810;4.394;2023-12-07T11:56:44;6.60;99.90
23540;DHT22;11947;50.810;4.394;2023-12-07T11:59:10;6.50;99.90
23540;DHT22;11947;50.810;4.394;2023-12-07T12:01:36;6.50;99.90
23540;DHT22;11947;50.810;4.394;2023-12-07T12:04:02;6.10;99.90
23540;DHT22;11947;50.810;4.394;2023-12-07T12:06:29;6.10;99.90
23540;DHT22;11947;50.810;4.394;2023-12-07T12:08:56;6.20;99.90
23540;DHT22;11947;50.810;4.394;2023-12-07T12:11:21;6.10;99.90
23540;DHT22;11947;50.810;4.394;2023-12-07T12:13:47;6.00;99.90
23540;DHT22;11947;50.810;4.394;2023-12-07T12:16:14;6.00;99.90
23540;DHT22;11947;50.810;4.394;2023-12-07T12:18:39;5.90;99.90
23540;DHT22;11947;50.810;4.394;2023-12-07T12:21:07;5.80;99.90
23540;DHT22;11947;50.810;4.394;2023-12-07T12:23:34;5.70;99.90
23540;DHT22;11947;50.810;4.394;2023-12-07T12:26:00;5.90;99.90
23540;DHT22;11947;50.810;4.394;2023-12-07T12:28:26;5.90;99.90
23540;DHT22;11947;50.810;4.394;2023-12-07T12:30:52;5.80;99.90
23540;DHT22;11947;50.810;4.394;2023-12-07T12:33:18;5.80;99.90
23540;DHT22;11947;50.810;4.394;2023-12-07T12:35:44;5.70;99.90
23540;DHT22;11947;50.810;4.394;2023-12-07T12:38:13;5.80;99.90
23540;DHT22;11947;50.810;4.394;2023-12-07T12:40:39;5.80;99.90
23540;DHT22;11947;50.810;4.394;2023-12-07T12:43:07;5.80;99.90
23540;DHT22;11947;50.810;4.394;2023-12-07T12:45:33;5.60;99.90
23540;DHT22;11947;50.810;4.394;2023-12-07T12:47:59;5.70;99.90
23540;DHT22;11947;50.810;4.394;2023-12-07T12:50:38;5.80;99.90
23540;DHT22;11947;50.810;4.394;2023-12-07T12:53:06;5.70;99.90
23540;DHT22;11947;50.810;4.394;2023-12-07T12:55:40;5.80;99.90
23540;DHT22;11947;50.810;4.394;2023-12-07T12:58:07;5.70;99.90
23540;DHT22;11947;50.810;4.394;2023-12-07T13:00:34;5.60;99.90
23540;DHT22;11947;50.810;4.394;2023-12-07T13:03:00;5.50;99.90
23540;DHT22;11947;50.810;4.394;2023-12-07T13:05:27;5.70;99.90
23540;DHT22;11947;50.810;4.394;2023-12-07T13:07:53;5.90;99.90
23540;DHT22;11947;50.810;4.394;2023-12-07T13:10:18;5.90;99.90
23540;DHT22;11947;50.810;4.394;2023-12-07T13:12:44;6.00;99.90
23540;DHT22;11947;50.810;4.394;2023-12-07T13:15:11;6.10;99.90
23540;DHT22;11947;50.810;4.394;2023-12-07T13:17:38;6.00;99.90
23540;DHT22;11947;50.810;4.394;2023-12-07T13:20:05;6.10;99.90
23540;DHT22;11947;50.810;4.394;2023-12-07T13:22:32;6.30;99.90
23540;DHT22;11947;50.810;4.394;2023-12-07T13:24:58;6.20;99.90
23540;DHT22;11947;50.810;4.394;2023-12-07T13:27:24;5.80;99.90
23540;DHT22;11947;50.810;4.394;2023-12-07T13:29:49;5.90;99.90
23540;DHT22;11947;50.810;4.394;2023-12-07T13:32:15;6.00;99.90
23540;DHT22;11947;50.810;4.394;2023-12-07T13:34:41;5.80;99.90
23540;DHT22;11947;50.810;4.394;2023-12-07T13:37:08;5.60;99.90
23540;DHT22;11947;50.810;4.394;2023-12-07T13:39:34;5.60;99.90
23540;DHT22;11947;50.810;4.394;2023-12-07T13:41:59;5.70;99.90
23540;DHT22;11947;50.810;4.394;2023-12-07T13:44:25;5.60;99.90
23540;DHT22;11947;50.810;4.394;2023-12-07T13:46:51;5.60;99.90
23540;DHT22;11947;50.810;4.394;2023-12-07T13:49:19;5.50;99.90
23540;DHT22;11947;50.810;4.394;2023-12-07T13:51:45;5.50;99.90
23540;DHT22;11947;50.810;4.394;2023-12-07T13:54:12;5.70;99.90
23540;DHT22;11947;50.810;4.394;2023-12-07T13:56:37;5.50;99.90
23540;DHT22;11947;50.810;4.394;2023-12-07T13:59:03;5.50;99.90
23540;DHT22;11947;50.810;4.394;2023-12-07T14:01:29;5.70;99.90
23540;DHT22;11947;50.810;4.394;2023-12-07T14:03:57;5.70;99.90
23540;DHT22;11947;50.810;4.394;2023-12-07T14:06:23;5.60;99.90
23540;DHT22;11947;50.810;4.394;2023-12-07T14:08:49;5.40;99.90
23540;DHT22;11947;50.810;4.394;2023-12-07T14:11:16;5.70;99.90
23540;DHT22;11947;50.810;4.394;2023-12-07T14:13:41;5.50;99.90
23540;DHT22;11947;50.810;4.394;2023-12-07T14:16:07;5.40;99.90
23540;DHT22;11947;50.810;4.394;2023-12-07T14:18:34;5.50;99.90
23540;DHT22;11947;50.810;4.394;2023-12-07T14:21:00;5.60;99.90
23540;DHT22;11947;50.810;4.394;2023-12-07T14:23:25;5.50;99.90
23540;DHT22;11947;50.810;4.394;2023-12-07T14:25:52;5.60;99.90
23540;DHT22;11947;50.810;4.394;2023-12-07T14:28:17;5.50;99.90
23540;DHT22;11947;50.810;4.394;2023-12-07T14:30:44;5.40;99.90
23540;DHT22;11947;50.810;4.394;2023-12-07T14:33:09;5.40;99.90
23540;DHT22;11947;50.810;4.394;2023-12-07T14:35:35;5.40;99.90
23540;DHT22;11947;50.810;4.394;2023-12-07T14:38:01;5.40;99.90
23540;DHT22;11947;50.810;4.394;2023-12-07T14:40:26;5.50;99.90
23540;DHT22;11947;50.810;4.394;2023-12-07T14:42:52;5.30;99.90
23540;DHT22;11947;50.810;4.394;2023-12-07T14:45:20;5.20;99.90
23540;DHT22;11947;50.810;4.394;2023-12-07T14:47:46;5.10;99.90
23540;DHT22;11947;50.810;4.394;2023-12-07T14:50:11;5.20;99.90
23540;DHT22;11947;50.810;4.394;2023-12-07T14:52:37;5.20;99.90
23540;DHT22;11947;50.810;4.394;2023-12-07T14:55:04;5.10;99.90
23540;DHT22;11947;50.810;4.394;2023-12-07T14:57:30;5.10;99.90
23540;DHT22;11947;50.810;4.394;2023-12-07T14:59:56;5.20;99.90
23540;DHT22;11947;50.810;4.394;2023-12-07T15:02:24;5.30;99.90
23540;DHT22;11947;50.810;4.394;2023-12-07T15:04:49;5.20;99.90
23540;DHT22;11947;50.810;4.394;2023-12-07T15:07:15;5.40;99.90
23540;DHT22;11947;50.810;4.394;2023-12-07T15:09:42;5.30;99.90
23540;DHT22;11947;50.810;4.394;2023-12-07T15:12:08;5.30;99.90
23540;DHT22;11947;50.810;4.394;2023-12-07T15:14:33;5.40;99.90
23540;DHT22;11947;50.810;4.394;2023-12-07T15:16:59;5.40;99.90
23540;DHT22;11947;50.810;4.394;2023-12-07T15:19:25;5.40;99.90
23540;DHT22;11947;50.810;4.394;2023-12-07T15:21:51;5.20;99.90
23540;DHT22;11947;50.810;4.394;2023-12-07T15:24:17;5.30;99.90
23540;DHT22;11947;50.810;4.394;2023-12-07T15:26:44;5.10;99.90
23540;DHT22;11947;50.810;4.394;2023-12-07T15:29:10;5.10;99.90
23540;DHT22;11947;50.810;4.394;2023-12-07T15:31:36;5.10;99.90
23540;DHT22;11947;50.810;4.394;2023-12-07T15:34:01;5.20;99.90
23540;DHT22;11947;50.810;4.394;2023-12-07T15:36:27;5.20;99.90
23540;DHT22;11947;50.810;4.394;2023-12-07T15:38:53;5.20;99.90
23540;DHT22;11947;50.810;4.394;2023-12-07T15:41:19;5.10;99.90
23540;DHT22;11947;50.810;4.394;2023-12-07T15:43:44;5.10;99.90
23540;DHT22;11947;50.810;4.394;2023-12-07T15:46:10;5.00;99.90